Terminal Aerodrome Forecast
Issued by NWS Los Angeles, CA

Home | Current Version | Previous Version | Text Only | Print | Product List | Glossary On
Versions: 1 2 3 4 5 6 7 8 9 10 11 12 13 14 15 16 17 18 19 20 21 22 23 24 25 26 27 28
000
FTUS46 KLOX 272340
TAFSMX
TAF
KSMX 272340Z 2800/2824 30015KT P6SM FEW010
     FM280300 30009KT P6SM SCT010
     FM280600 VRB03KT P6SM OVC008
     FM281000 VRB03KT 4SM BR OVC006
     FM281800 30007KT P6SM SKC
     FM282000 31014KT P6SM SKC=

USA.gov is the U.S. government's official web portal to all federal, state and local government web resources and services.